Time;durP1;ratioP1;P1;durP2;ratioP2;P2;SDS_P1;SDS_P2;PMS_P1;PMS_P2;Temp;Humidity;BMP_temperature;BMP_pressure;BME280_temperature;BME280_humidity;BME280_pressure;Samples;Min_cycle;Max_cycle;Signal;HPM_P1;HPM_P2
2021/08/24 00:01:16;;;;;;;4.47;3.97;;;16.30;99.90;;;;;;5111244;28;20979;-81
2021/08/24 00:03:43;;;;;;;5.40;4.90;;;16.30;99.90;;;;;;5111766;28;20446;-82
2021/08/24 00:06:10;;;;;;;4.97;4.57;;;16.30;99.90;;;;;;5111746;28;20457;-83
2021/08/24 00:08:44;;;;;;;4.93;4.00;;;16.30;99.90;;;;;;5113663;28;20448;-83
2021/08/24 00:11:12;;;;;;;6.63;5.40;;;16.20;99.90;;;;;;5113789;28;20429;-80
2021/08/24 00:13:40;;;;;;;4.87;4.37;;;16.20;99.90;;;;;;5113814;28;20409;-80
2021/08/24 00:16:08;;;;;;;6.30;4.70;;;16.20;99.90;;;;;;5091639;28;20438;-83
2021/08/24 00:18:36;;;;;;;4.93;4.37;;;16.10;99.90;;;;;;5107680;28;20438;-82
2021/08/24 00:21:03;;;;;;;4.47;4.07;;;16.10;99.90;;;;;;5110712;28;20465;-79
2021/08/24 00:23:31;;;;;;;4.87;4.40;;;16.10;99.90;;;;;;5110981;28;20460;-80
2021/08/24 00:25:59;;;;;;;4.37;3.97;;;16.10;99.90;;;;;;5111617;28;20809;-79
2021/08/24 00:28:27;;;;;;;5.40;4.60;;;16.00;99.90;;;;;;5093805;28;20438;-81
2021/08/24 00:30:54;;;;;;;5.90;3.90;;;16.00;99.90;;;;;;5113591;28;20473;-81
2021/08/24 00:33:23;;;;;;;4.17;3.80;;;16.00;99.90;;;;;;5113494;28;20807;-79
2021/08/24 00:35:50;;;;;;;4.83;4.30;;;15.90;99.90;;;;;;5095506;28;20437;-79
2021/08/24 00:38:20;;;;;;;3.90;3.53;;;15.90;99.90;;;;;;5109334;28;20427;-83
2021/08/24 00:40:53;;;;;;;4.07;3.67;;;15.90;99.90;;;;;;5107887;28;20541;-78
2021/08/24 00:43:20;;;;;;;4.20;3.80;;;15.90;99.90;;;;;;5095577;28;20492;-81
2021/08/24 00:45:51;;;;;;;3.63;3.23;;;15.80;99.90;;;;;;5115200;28;20416;-83
2021/08/24 00:48:19;;;;;;;3.90;3.50;;;15.80;99.90;;;;;;5097686;28;20454;-85
2021/08/24 00:50:50;;;;;;;6.90;3.73;;;15.70;99.90;;;;;;5115820;28;20459;-86
2021/08/24 00:53:21;;;;;;;4.23;3.73;;;15.70;99.90;;;;;;5117637;28;20438;-79
2021/08/24 00:55:50;;;;;;;4.20;3.40;;;15.80;99.90;;;;;;5099644;28;20442;-83
2021/08/24 00:58:17;;;;;;;3.93;3.53;;;15.70;99.90;;;;;;5117564;28;20512;-84
2021/08/24 01:00:46;;;;;;;5.10;3.77;;;15.70;99.90;;;;;;5111771;28;20800;-82
2021/08/24 01:03:16;;;;;;;3.00;2.80;;;15.70;99.90;;;;;;5112010;28;20478;-82
2021/08/24 01:05:45;;;;;;;3.83;3.23;;;15.60;99.90;;;;;;5096787;28;20955;-83
2021/08/24 01:08:24;;;;;;;3.67;3.37;;;15.60;99.90;;;;;;5114655;28;20470;-84
2021/08/24 01:11:01;;;;;;;4.83;4.33;;;15.60;99.90;;;;;;5114936;28;20485;-81
2021/08/24 01:13:36;;;;;;;3.63;3.33;;;15.60;99.90;;;;;;5115852;28;20442;-83
2021/08/24 01:16:14;;;;;;;4.80;3.67;;;15.50;99.90;;;;;;5117103;28;20448;-81
2021/08/24 01:18:52;;;;;;;4.57;3.47;;;15.50;99.90;;;;;;5098969;28;20438;-79
2021/08/24 01:21:47;;;;;;;3.80;3.40;;;15.50;99.90;;;;;;5115338;28;20792;-85
2021/08/24 01:24:21;;;;;;;3.13;2.83;;;15.50;99.90;;;;;;5110375;28;20434;-82
2021/08/24 01:26:56;;;;;;;4.13;3.27;;;15.40;99.90;;;;;;5113780;28;20433;-80
2021/08/24 01:29:51;;;;;;;4.00;3.57;;;15.40;99.90;;;;;;5096259;28;20446;-83
2021/08/24 01:32:32;;;;;;;4.10;2.87;;;15.40;99.90;;;;;;5114923;28;20454;-84
2021/08/24 01:35:23;;;;;;;3.80;2.93;;;15.40;99.90;;;;;;5115178;28;20458;-79
2021/08/24 01:38:01;;;;;;;2.90;2.60;;;15.40;99.90;;;;;;5098978;28;20821;-78
2021/08/24 01:40:42;;;;;;;3.73;2.90;;;15.40;99.90;;;;;;5099699;28;20810;-80
2021/08/24 01:43:13;;;;;;;4.77;3.10;;;15.40;99.90;;;;;;5096778;28;20486;-80
2021/08/24 01:45:48;;;;;;;5.03;2.77;;;15.40;99.90;;;;;;5083881;28;20438;-82
2021/08/24 01:48:20;;;;;;;3.60;3.30;;;15.40;99.90;;;;;;5112231;28;20944;-80
2021/08/24 01:50:52;;;;;;;3.60;3.03;;;15.30;99.90;;;;;;5113895;28;20462;-80
2021/08/24 01:53:24;;;;;;;3.00;2.70;;;15.30;99.90;;;;;;5113760;28;20773;-84
2021/08/24 01:55:53;;;;;;;3.90;3.30;;;15.30;99.90;;;;;;5096672;28;20815;-82
2021/08/24 01:58:23;;;;;;;3.80;3.03;;;15.30;99.90;;;;;;5115382;28;20446;-82
2021/08/24 02:00:53;;;;;;;5.00;2.90;;;15.30;99.90;;;;;;5116085;28;20458;-83
2021/08/24 02:03:28;;;;;;;4.30;3.10;;;15.30;99.90;;;;;;5097784;28;20474;-83
2021/08/24 02:06:00;;;;;;;3.47;3.17;;;15.20;99.90;;;;;;5113073;28;20906;-78
2021/08/24 02:08:35;;;;;;;3.50;2.87;;;15.20;99.90;;;;;;5087933;28;20441;-79
2021/08/24 02:11:05;;;;;;;3.33;3.03;;;15.20;99.90;;;;;;5092340;28;20474;-80
2021/08/24 02:13:36;;;;;;;3.43;3.13;;;15.20;99.90;;;;;;5092083;28;20443;-81
2021/08/24 02:16:08;;;;;;;5.83;3.67;;;15.20;99.90;;;;;;5092154;28;20949;-81
2021/08/24 02:18:38;;;;;;;4.40;3.60;;;15.10;99.90;;;;;;5093593;28;20455;-79
2021/08/24 02:21:09;;;;;;;4.23;3.40;;;15.20;99.90;;;;;;5094338;28;20442;-79
2021/08/24 02:23:38;;;;;;;3.90;3.60;;;15.10;99.90;;;;;;5111482;28;20478;-80
2021/08/24 02:26:09;;;;;;;5.40;3.10;;;15.10;99.90;;;;;;5094224;28;20426;-77
2021/08/24 02:28:37;;;;;;;4.90;3.37;;;15.20;99.90;;;;;;5089823;28;20446;-82
2021/08/24 02:31:11;;;;;;;4.03;3.60;;;15.20;99.90;;;;;;5088600;28;20451;-78
2021/08/24 02:33:42;;;;;;;3.40;3.10;;;15.20;99.90;;;;;;5092297;28;20447;-77
2021/08/24 02:36:11;;;;;;;3.50;3.20;;;15.20;99.90;;;;;;5091535;28;20438;-81
2021/08/24 02:38:43;;;;;;;3.60;3.20;;;15.20;99.90;;;;;;5075306;28;21154;-79
2021/08/24 02:41:14;;;;;;;3.87;3.47;;;15.20;99.90;;;;;;5093535;28;20434;-81
2021/08/24 02:43:49;;;;;;;2.63;2.43;;;15.20;99.90;;;;;;5093909;28;20464;-78
2021/08/24 02:46:21;;;;;;;3.83;2.97;;;15.20;99.90;;;;;;5095277;28;20442;-82
2021/08/24 02:48:54;;;;;;;2.87;2.67;;;15.20;99.90;;;;;;5096222;28;20439;-79
2021/08/24 02:51:23;;;;;;;3.63;3.03;;;15.30;99.90;;;;;;5088264;28;20467;-79
2021/08/24 02:54:03;;;;;;;3.50;2.67;;;15.30;99.90;;;;;;5089985;28;20431;-81
2021/08/24 02:56:30;;;;;;;2.80;2.60;;;15.20;99.90;;;;;;5092631;28;20847;-80
2021/08/24 02:58:57;;;;;;;3.57;3.13;;;15.30;99.90;;;;;;5092378;28;20435;-81
2021/08/24 03:01:24;;;;;;;3.20;2.90;;;15.30;99.90;;;;;;5092358;28;20965;-81
2021/08/24 03:03:51;;;;;;;5.07;2.90;;;15.30;99.90;;;;;;5093606;28;20483;-80
2021/08/24 03:06:18;;;;;;;3.27;2.80;;;15.30;99.90;;;;;;5094677;28;20431;-80
2021/08/24 03:08:46;;;;;;;3.17;2.87;;;15.30;99.90;;;;;;5093239;28;20444;-81
2021/08/24 03:11:19;;;;;;;4.03;2.90;;;15.30;99.90;;;;;;5092524;28;20467;-82
2021/08/24 03:13:55;;;;;;;3.10;2.80;;;15.30;99.90;;;;;;5088032;28;20432;-81
2021/08/24 03:16:27;;;;;;;3.53;3.00;;;15.30;99.90;;;;;;5090045;28;20418;-80
2021/08/24 03:18:58;;;;;;;3.30;2.83;;;15.30;99.90;;;;;;5090909;28;20444;-81
2021/08/24 03:21:29;;;;;;;3.50;3.10;;;15.30;99.90;;;;;;5090912;28;20470;-83
2021/08/24 03:23:57;;;;;;;3.57;3.17;;;;;;;;;;5092152;28;20479;-82
2021/08/24 03:26:26;;;;;;;4.63;3.43;;;;;;;;;;5093440;28;20448;-78
2021/08/24 03:28:53;;;;;;;4.43;3.10;;;15.10;99.90;;;;;;5094255;28;20445;-80
2021/08/24 03:31:21;;;;;;;3.60;3.30;;;;;;;;;;5094133;28;20459;-81
2021/08/24 03:33:49;;;;;;;3.47;2.90;;;;;;;;;;5092430;28;20443;-79
2021/08/24 03:36:16;;;;;;;3.50;2.93;;;;;;;;;;5087720;28;20986;-79
2021/08/24 03:38:43;;;;;;;4.43;3.17;;;;;;;;;;5090033;28;20458;-77
2021/08/24 03:41:12;;;;;;;3.33;3.03;;;;;;;;;;5091422;28;20458;-79
2021/08/24 03:43:41;;;;;;;2.90;2.70;;;;;;;;;;5090608;28;20844;-79
2021/08/24 03:46:09;;;;;;;6.53;3.03;;;;;;;;;;5091743;28;20976;-82
2021/08/24 03:48:37;;;;;;;3.23;2.77;;;;;;;;;;5093212;28;20482;-82
2021/08/24 03:51:04;;;;;;;3.07;2.77;;;;;;;;;;5093878;28;20542;-83
2021/08/24 03:53:33;;;;;;;4.07;3.20;;;;;;;;;;5093953;28;20446;-81
2021/08/24 03:56:00;;;;;;;3.40;2.70;;;;;;;;;;5091529;28;20420;-81
2021/08/24 03:58:27;;;;;;;2.90;2.60;;;;;;;;;;5087025;28;20867;-82
2021/08/24 04:00:55;;;;;;;3.10;2.80;;;;;;;;;;5090649;28;20498;-80
2021/08/24 04:03:22;;;;;;;3.30;3.00;;;;;;;;;;5091140;28;20475;-80
2021/08/24 04:05:50;;;;;;;4.20;3.00;;;;;;;;;;5091491;28;20442;-80
2021/08/24 04:08:17;;;;;;;4.37;3.23;;;;;;;;;;5090066;28;20467;-81
2021/08/24 04:10:44;;;;;;;6.37;3.40;;;;;;;;;;5092624;28;20457;-80
2021/08/24 04:13:11;;;;;;;4.33;3.27;;;;;;;;;;5093608;28;20451;-82
2021/08/24 04:15:38;;;;;;;3.40;3.07;;;;;;;;;;5093579;28;20446;-82
2021/08/24 04:18:07;;;;;;;3.90;3.10;;;;;;;;;;5091174;28;20438;-79
2021/08/24 04:20:35;;;;;;;4.50;3.37;;;;;;;;;;5087157;28;20452;-82
2021/08/24 04:23:02;;;;;;;4.30;3.60;;;;;;;;;;5089965;28;20434;-83
2021/08/24 04:25:29;;;;;;;6.43;3.63;;;;;;;;;;5090994;28;20442;-79
2021/08/24 04:27:56;;;;;;;5.23;3.47;;;;;;;;;;5091394;28;20444;-80
2021/08/24 04:30:23;;;;;;;3.63;3.10;;;;;;;;;;5091347;28;20457;-81
2021/08/24 04:32:50;;;;;;;3.60;3.03;;;;;;;;;;5092871;28;20473;-82
2021/08/24 04:35:20;;;;;;;4.40;3.67;;;;;;;;;;5093301;28;20941;-80
2021/08/24 04:37:47;;;;;;;3.37;3.07;;;;;;;;;;5093573;28;20437;-82
2021/08/24 04:40:15;;;;;;;3.70;3.00;;;;;;;;;;5090548;28;20467;-85
2021/08/24 04:42:42;;;;;;;4.20;3.60;;;;;;;;;;5088433;28;20782;-79
2021/08/24 04:45:11;;;;;;;4.17;3.77;;;;;;;;;;5089444;28;20815;-78
2021/08/24 04:47:38;;;;;;;3.30;3.00;;;;;;;;;;5089513;28;20454;-81
2021/08/24 04:50:05;;;;;;;4.73;3.47;;;;;;;;;;5091200;28;20457;-79
2021/08/24 04:52:34;;;;;;;4.53;3.57;;;;;;;;;;5090792;28;20471;-83
2021/08/24 04:55:01;;;;;;;3.63;3.33;;;;;;;;;;5093223;28;20440;-81
2021/08/24 04:57:28;;;;;;;4.03;3.20;;;;;;;;;;5093480;28;20800;-79
2021/08/24 04:59:55;;;;;;;3.80;3.50;;;;;;;;;;5093028;28;20448;-82
2021/08/24 05:02:23;;;;;;;3.77;3.33;;;;;;;;;;5090205;28;20441;-81
2021/08/24 05:04:50;;;;;;;4.70;4.03;;;;;;;;;;5086802;28;20483;-81
2021/08/24 05:07:17;;;;;;;4.27;3.50;;;;;;;;;;5090191;28;20443;-81
2021/08/24 05:09:45;;;;;;;11.87;4.73;;;;;;;;;;5106918;28;20488;-81
2021/08/24 05:12:13;;;;;;;4.00;3.30;;;;;;;;;;5111193;28;20455;-79
2021/08/24 05:14:40;;;;;;;4.90;3.60;;;;;;;;;;5110964;28;20442;-81
2021/08/24 05:17:07;;;;;;;5.20;3.70;;;;;;;;;;5113628;28;20794;-81
2021/08/24 05:19:34;;;;;;;3.50;3.20;;;;;;;;;;5113446;28;20961;-80
2021/08/24 05:22:01;;;;;;;3.73;3.30;;;;;;;;;;5113560;28;20473;-79
2021/08/24 05:24:28;;;;;;;5.13;3.97;;;;;;;;;;5110267;28;20477;-80
2021/08/24 05:26:57;;;;;;;6.07;4.07;;;;;;;;;;5109868;28;21150;-81
2021/08/24 05:29:24;;;;;;;4.57;3.40;;;;;;;;;;5116509;28;20434;-81
2021/08/24 05:31:51;;;;;;;3.90;3.23;;;;;;;;;;5117533;28;20450;-82
2021/08/24 05:34:18;;;;;;;5.93;3.57;;;;;;;;;;5114816;28;20449;-81
2021/08/24 05:36:45;;;;;;;4.90;3.47;;;;;;;;;;5114240;28;20430;-78
2021/08/24 05:39:12;;;;;;;4.33;3.70;;;;;;;;;;5115127;28;20784;-80
2021/08/24 05:41:40;;;;;;;3.50;3.10;;;;;;;;;;5110085;28;20803;-85
2021/08/24 05:44:09;;;;;;;5.33;3.50;;;;;;;;;;5111893;28;20474;-80
2021/08/24 05:46:36;;;;;;;4.70;3.37;;;;;;;;;;5114308;28;20442;-82
2021/08/24 05:49:03;;;;;;;4.23;3.37;;;;;;;;;;5096145;28;20435;-81
2021/08/24 05:51:31;;;;;;;4.67;3.30;;;;;;;;;;5114464;28;20454;-81
2021/08/24 05:53:58;;;;;;;4.83;3.53;;;;;;;;;;5112397;28;20458;-83
2021/08/24 05:56:27;;;;;;;3.63;3.33;;;;;;;;;;5109212;28;20421;-81
2021/08/24 05:58:54;;;;;;;4.93;3.53;;;;;;;;;;5094243;28;20448;-83
2021/08/24 06:01:24;;;;;;;3.47;3.10;;;;;;;;;;5113945;28;20447;-82
2021/08/24 06:03:51;;;;;;;4.40;3.60;;;;;;;;;;5114005;28;20972;-80
2021/08/24 06:06:19;;;;;;;3.97;3.20;;;;;;;;;;5113192;28;20405;-79
2021/08/24 06:08:47;;;;;;;5.70;3.60;;;;;;;;;;5115234;28;20468;-80
2021/08/24 06:11:22;;;;;;;3.60;3.10;;;;;;;;;;5115829;28;20432;-81
2021/08/24 06:13:49;;;;;;;4.43;3.47;;;;;;;;;;5116330;28;20442;-79
2021/08/24 06:16:20;;;;;;;4.20;3.37;;;;;;;;;;5113055;27;20441;-79
2021/08/24 06:18:48;;;;;;;3.60;3.10;;;;;;;;;;5109471;28;20452;-79
2021/08/24 06:21:16;;;;;;;3.33;3.00;;;;;;;;;;5111225;28;20447;-82
2021/08/24 06:23:58;;;;;;;5.00;3.37;;;;;;;;;;5115316;28;20827;-82
2021/08/24 06:26:25;;;;;;;3.03;2.70;;;;;;;;;;5090619;28;20450;-79
2021/08/24 06:28:52;;;;;;;3.33;2.83;;;;;;;;;;5114282;28;20441;-83
2021/08/24 06:31:21;;;;;;;4.07;2.67;;;;;;;;;;5114771;28;20466;-83
2021/08/24 06:33:50;;;;;;;3.90;3.00;;;;;;;;;;5115533;28;20443;-78
2021/08/24 06:36:18;;;;;;;3.10;2.63;;;;;;;;;;5097357;28;20465;-82
2021/08/24 06:38:45;;;;;;;4.33;2.77;;;;;;;;;;5097588;28;20439;-81
2021/08/24 06:41:15;;;;;;;6.87;3.17;;;;;;;;;;5109813;28;20454;-81
2021/08/24 06:44:25;;;;;;;3.53;2.60;;;;;;;;;;5109790;28;20434;-82
2021/08/24 06:46:57;;;;;;;3.60;2.47;;;;;;;;;;5113346;28;20439;-81
2021/08/24 06:49:28;;;;;;;4.17;2.90;;;;;;;;;;5113229;28;20464;-83
2021/08/24 06:51:57;;;;;;;3.27;2.50;;;17.70;99.90;;;;;;5113379;28;20450;-85
2021/08/24 06:54:24;;;;;;;4.83;2.70;;;18.00;99.90;;;;;;5114719;28;20462;-82
2021/08/24 06:56:51;;;;;;;4.00;2.30;;;18.10;99.90;;;;;;5115002;28;20434;-81
2021/08/24 06:59:18;;;;;;;2.43;2.10;;;18.30;99.90;;;;;;5115735;28;20442;-83
2021/08/24 07:01:45;;;;;;;2.70;2.03;;;;;;;;;;5115849;28;20500;-83
2021/08/24 07:04:13;;;;;;;4.60;2.27;;;;;;;;;;5109062;28;20525;-80
2021/08/24 07:07:24;;;;;;;5.60;2.23;;;;;;;;;;5109891;28;20486;-78
2021/08/24 07:10:34;;;;;;;4.70;2.27;;;;;;;;;;5109364;28;20474;-80
2021/08/24 07:13:01;;;;;;;4.93;2.17;;;18.90;99.90;;;;;;5111155;28;20937;-81
2021/08/24 07:15:28;;;;;;;3.50;2.47;;;19.10;99.90;;;;;;5107943;28;20447;-83
2021/08/24 07:17:56;;;;;;;3.83;2.20;;;;;;;;;;5106620;28;20441;-80
2021/08/24 07:20:25;;;;;;;3.70;2.07;;;;;;;;;;5109343;28;20442;-79
2021/08/24 07:22:53;;;;;;;2.73;2.40;;;19.40;99.90;;;;;;5112723;28;20443;-80
2021/08/24 07:25:25;;;;;;;3.10;2.40;;;19.60;99.90;;;;;;5112161;28;20794;-79
2021/08/24 07:27:52;;;;;;;3.10;2.53;;;19.60;99.90;;;;;;5112595;28;20986;-79
2021/08/24 07:30:19;;;;;;;4.00;2.37;;;19.80;99.90;;;;;;5098810;28;20830;-80
2021/08/24 07:32:46;;;;;;;4.80;3.00;;;20.00;99.90;;;;;;5094409;28;20440;-77
2021/08/24 07:35:14;;;;;;;4.30;2.60;;;20.00;99.90;;;;;;5094144;28;20435;-80
2021/08/24 07:37:41;;;;;;;3.30;2.03;;;20.10;99.90;;;;;;5094240;28;20443;-77
2021/08/24 07:40:11;;;;;;;5.83;2.60;;;20.20;99.90;;;;;;5104759;28;20439;-76
2021/08/24 07:42:38;;;;;;;3.17;2.47;;;20.20;99.90;;;;;;5108932;28;20449;-78
2021/08/24 07:45:07;;;;;;;4.93;2.30;;;20.30;99.90;;;;;;5092431;28;20435;-81
2021/08/24 07:47:34;;;;;;;3.80;2.27;;;20.30;99.90;;;;;;5094121;28;20490;-82
2021/08/24 07:50:01;;;;;;;3.10;2.40;;;20.40;99.90;;;;;;5112038;28;20455;-84
2021/08/24 07:52:28;;;;;;;3.83;2.53;;;20.50;99.90;;;;;;5100892;28;20956;-82
2021/08/24 07:54:55;;;;;;;2.53;1.90;;;20.50;99.90;;;;;;5112554;28;20805;-84
2021/08/24 07:57:23;;;;;;;2.00;1.73;;;20.60;99.90;;;;;;5114155;28;20446;-82
2021/08/24 07:59:50;;;;;;;2.33;1.87;;;20.60;99.90;;;;;;5113264;28;20441;-84
2021/08/24 08:02:18;;;;;;;2.50;2.20;;;20.70;99.90;;;;;;5107842;28;20454;-83
2021/08/24 08:04:45;;;;;;;2.40;2.07;;;20.70;99.90;;;;;;5088075;28;20438;-82
2021/08/24 08:07:13;;;;;;;2.20;1.97;;;20.70;99.90;;;;;;5111123;28;20470;-80
2021/08/24 08:09:40;;;;;;;3.13;1.80;;;20.70;99.90;;;;;;5110441;28;20505;-84
2021/08/24 08:12:09;;;;;;;3.30;2.03;;;20.80;99.90;;;;;;5111260;28;20442;-84
2021/08/24 08:14:37;;;;;;;3.60;2.23;;;20.80;99.90;;;;;;5079366;28;20458;-83
2021/08/24 08:17:05;;;;;;;3.33;1.93;;;20.90;99.90;;;;;;5113640;28;20434;-84
2021/08/24 08:19:32;;;;;;;3.17;2.70;;;20.80;99.90;;;;;;5095385;28;20443;-81
2021/08/24 08:21:59;;;;;;;4.30;2.57;;;20.90;99.90;;;;;;5113954;28;20481;-80
2021/08/24 08:24:26;;;;;;;3.37;2.87;;;20.90;99.90;;;;;;5110390;28;21881;-81
2021/08/24 08:26:53;;;;;;;3.50;2.50;;;20.90;99.90;;;;;;5107558;28;20478;-83
2021/08/24 08:29:19;;;;;;;3.37;2.37;;;20.90;99.90;;;;;;5110866;28;20441;-80
2021/08/24 08:31:49;;;;;;;2.80;1.93;;;20.80;99.90;;;;;;5111003;28;20472;-81
2021/08/24 08:34:18;;;;;;;3.27;2.40;;;20.80;99.90;;;;;;5111948;28;20443;-82
2021/08/24 08:36:46;;;;;;;3.50;2.07;;;20.60;99.90;;;;;;5093558;28;20462;-80
2021/08/24 08:39:13;;;;;;;2.67;2.10;;;20.60;99.90;;;;;;5113409;28;20840;-83
2021/08/24 08:41:48;;;;;;;3.97;2.37;;;20.70;99.90;;;;;;5113654;28;20459;-82
2021/08/24 08:44:23;;;;;;;3.90;2.63;;;20.70;99.90;;;;;;5113868;28;20805;-80
2021/08/24 08:46:58;;;;;;;3.10;2.67;;;20.80;99.90;;;;;;5109885;28;20473;-82
2021/08/24 08:49:34;;;;;;;3.47;2.30;;;20.80;99.90;;;;;;5107381;28;20903;-82
2021/08/24 08:52:12;;;;;;;2.30;2.10;;;20.80;99.90;;;;;;5110622;28;20461;-80
2021/08/24 08:54:52;;;;;;;3.57;2.30;;;20.90;99.90;;;;;;5111435;28;20821;-82
2021/08/24 08:57:23;;;;;;;2.53;2.00;;;20.80;99.90;;;;;;5111375;28;20454;-81
2021/08/24 08:59:54;;;;;;;3.33;2.03;;;20.90;99.90;;;;;;5111454;28;20456;-81
2021/08/24 09:02:31;;;;;;;2.73;2.37;;;20.80;99.90;;;;;;5090663;28;20953;-79
2021/08/24 09:05:02;;;;;;;3.07;2.20;;;20.80;99.90;;;;;;5110616;28;20453;-81
2021/08/24 09:07:35;;;;;;;2.23;1.90;;;20.80;99.90;;;;;;5111601;28;20850;-87
2021/08/24 09:10:02;;;;;;;2.47;2.23;;;20.80;99.90;;;;;;5113430;28;20553;-81
2021/08/24 09:12:31;;;;;;;2.77;2.40;;;20.70;99.90;;;;;;5096814;28;20919;-79
2021/08/24 09:15:01;;;;;;;4.60;2.33;;;20.80;99.90;;;;;;5113446;28;20921;-82
2021/08/24 09:17:34;;;;;;;3.77;2.60;;;20.70;99.90;;;;;;5117033;28;20931;-82
2021/08/24 09:20:06;;;;;;;3.90;2.57;;;20.70;99.90;;;;;;5115586;27;20464;-80
2021/08/24 09:22:34;;;;;;;5.50;2.70;;;20.80;99.90;;;;;;5089556;28;20439;-81
2021/08/24 09:25:03;;;;;;;3.53;2.30;;;20.70;99.90;;;;;;5106457;28;20445;-83
2021/08/24 09:27:41;;;;;;;2.30;2.10;;;20.70;99.90;;;;;;5092533;28;20693;-77
2021/08/24 09:30:09;;;;;;;3.10;2.77;;;20.80;99.90;;;;;;5109924;28;20913;-81
2021/08/24 09:32:38;;;;;;;4.20;2.80;;;20.60;99.90;;;;;;5110841;28;20438;-78
2021/08/24 09:35:21;;;;;;;4.30;3.20;;;20.70;99.90;;;;;;5104961;28;20504;-81
2021/08/24 09:37:48;;;;;;;4.60;3.17;;;20.50;99.90;;;;;;5075142;28;20447;-78
2021/08/24 09:40:15;;;;;;;5.23;2.50;;;20.60;99.90;;;;;;5108782;28;20473;-79
2021/08/24 09:42:45;;;;;;;4.10;2.83;;;20.60;99.90;;;;;;5113038;28;20957;-77
2021/08/24 09:45:26;;;;;;;3.50;2.50;;;20.60;99.90;;;;;;5091635;28;20441;-80
2021/08/24 09:48:06;;;;;;;5.77;3.03;;;20.50;99.90;;;;;;5111569;28;20477;-81
2021/08/24 09:50:36;;;;;;;3.90;2.80;;;20.60;99.90;;;;;;5113614;28;20986;-79
2021/08/24 09:53:26;;;;;;;3.90;3.00;;;20.60;99.90;;;;;;5094550;28;20439;-78
2021/08/24 09:55:55;;;;;;;4.00;2.87;;;20.60;99.90;;;;;;5100490;28;20445;-79
2021/08/24 09:58:32;;;;;;;3.63;3.03;;;20.60;99.90;;;;;;5114107;28;20796;-78
2021/08/24 10:01:04;;;;;;;4.30;3.13;;;20.60;99.90;;;;;;5109657;28;20450;-78
2021/08/24 10:03:35;;;;;;;4.30;3.27;;;20.60;99.90;;;;;;5074379;28;20439;-79
2021/08/24 10:06:05;;;;;;;4.87;3.50;;;20.80;99.90;;;;;;5096744;28;20427;-82
2021/08/24 10:08:34;;;;;;;5.13;3.30;;;20.70;99.90;;;;;;5114012;28;20889;-87
2021/08/24 10:11:10;;;;;;;3.50;3.00;;;20.70;99.90;;;;;;5113630;28;20959;-80
2021/08/24 10:13:39;;;;;;;4.33;3.20;;;20.70;99.90;;;;;;5081540;28;20457;-81
2021/08/24 10:16:11;;;;;;;4.70;3.53;;;20.70;99.90;;;;;;5097846;28;20437;-79
2021/08/24 10:18:39;;;;;;;4.17;2.87;;;20.70;99.90;;;;;;5097877;28;20447;-80
2021/08/24 10:21:12;;;;;;;3.53;3.10;;;20.80;99.90;;;;;;5096006;28;20454;-79
2021/08/24 10:23:49;;;;;;;4.07;3.10;;;20.70;99.90;;;;;;5073300;28;20454;-79
2021/08/24 10:26:23;;;;;;;3.40;3.10;;;20.80;99.90;;;;;;5093897;28;20442;-77
2021/08/24 10:28:54;;;;;;;3.30;2.90;;;20.70;99.90;;;;;;5098435;28;20979;-80
2021/08/24 10:31:31;;;;;;;4.47;3.57;;;20.70;99.90;;;;;;5109224;28;20470;-81
2021/08/24 10:34:01;;;;;;;3.70;3.10;;;20.70;99.90;;;;;;5088752;28;20451;-78
2021/08/24 10:36:33;;;;;;;4.20;2.90;;;20.80;99.90;;;;;;5091223;28;20449;-79
2021/08/24 10:39:04;;;;;;;3.90;3.20;;;20.80;99.90;;;;;;5111312;28;20435;-78
2021/08/24 10:41:40;;;;;;;3.83;2.90;;;20.70;99.90;;;;;;5078347;28;20462;-79
2021/08/24 10:44:18;;;;;;;5.90;3.57;;;20.70;99.90;;;;;;5113000;28;20439;-79
2021/08/24 10:46:54;;;;;;;5.50;3.10;;;20.70;99.90;;;;;;5092608;28;20439;-77
2021/08/24 10:49:21;;;;;;;4.90;3.57;;;20.70;99.90;;;;;;5095207;28;20439;-80
2021/08/24 10:52:01;;;;;;;4.47;3.30;;;20.90;99.90;;;;;;5093976;28;20455;-79
2021/08/24 10:54:45;;;;;;;3.40;2.50;;;20.80;99.90;;;;;;5096749;28;20899;-79
2021/08/24 10:57:26;;;;;;;3.10;2.70;;;20.80;99.90;;;;;;5112044;28;20431;-79
2021/08/24 11:00:05;;;;;;;4.63;3.10;;;20.80;99.90;;;;;;5109093;28;20430;-81
2021/08/24 11:02:45;;;;;;;3.67;2.80;;;20.80;99.90;;;;;;5074143;28;20497;-77
2021/08/24 11:05:26;;;;;;;9.10;3.30;;;20.80;99.90;;;;;;5092573;28;20438;-78
2021/08/24 11:08:02;;;;;;;4.97;3.20;;;20.80;99.90;;;;;;5101795;28;21018;-78
2021/08/24 11:10:40;;;;;;;3.83;3.43;;;20.70;99.90;;;;;;5101265;28;20493;-79
2021/08/24 11:13:16;;;;;;;3.10;2.73;;;20.90;99.90;;;;;;5095498;28;20444;-80
2021/08/24 11:15:49;;;;;;;4.47;2.93;;;20.80;99.90;;;;;;5094860;28;20435;-79
2021/08/24 11:18:28;;;;;;;5.33;3.00;;;20.70;99.90;;;;;;5110085;28;20816;-79
2021/08/24 11:21:01;;;;;;;3.17;2.87;;;;;;;;;;5107340;28;20994;-79
2021/08/24 11:23:44;;;;;;;4.03;2.83;;;20.80;99.90;;;;;;5110010;28;20445;-78
2021/08/24 11:26:18;;;;;;;3.80;3.00;;;20.90;99.90;;;;;;5095332;28;20446;-80
2021/08/24 11:29:01;;;;;;;3.43;2.80;;;20.90;99.90;;;;;;5112228;28;20492;-79
2021/08/24 11:31:38;;;;;;;3.23;2.80;;;20.80;99.90;;;;;;5109940;28;20820;-80
2021/08/24 11:34:09;;;;;;;4.57;3.13;;;20.90;99.90;;;;;;5093996;28;20920;-77
2021/08/24 11:36:39;;;;;;;3.20;2.70;;;20.90;99.90;;;;;;5108814;28;20804;-80
2021/08/24 11:39:13;;;;;;;5.20;2.67;;;20.90;99.90;;;;;;5097033;28;20445;-78
2021/08/24 11:41:42;;;;;;;4.00;2.93;;;20.90;99.90;;;;;;5095106;28;20446;-84
2021/08/24 11:44:15;;;;;;;5.53;3.07;;;21.00;99.90;;;;;;5107521;28;20453;-81
2021/08/24 11:46:47;;;;;;;3.80;3.10;;;21.00;99.90;;;;;;5091156;28;20435;-78
2021/08/24 11:49:21;;;;;;;4.70;3.40;;;20.90;99.90;;;;;;5111386;28;20486;-81
2021/08/24 11:51:54;;;;;;;3.70;3.10;;;20.90;99.90;;;;;;5111516;28;20815;-77
2021/08/24 11:54:33;;;;;;;5.87;3.60;;;20.90;99.90;;;;;;5112157;28;20434;-78
2021/08/24 11:57:08;;;;;;;3.37;2.53;;;21.00;99.90;;;;;;5093622;28;20444;-77
2021/08/24 11:59:43;;;;;;;3.13;2.83;;;21.00;99.90;;;;;;5076495;28;20928;-79
2021/08/24 12:02:16;;;;;;;3.83;3.03;;;21.00;99.90;;;;;;5093442;28;20461;-80
2021/08/24 12:04:48;;;;;;;3.83;2.77;;;21.00;99.90;;;;;;5105905;28;20533;-81
2021/08/24 12:07:29;;;;;;;3.97;2.60;;;21.00;99.90;;;;;;5108069;28;21948;-79
2021/08/24 12:09:57;;;;;;;3.90;2.70;;;21.00;99.90;;;;;;5074909;28;20462;-79
2021/08/24 12:12:44;;;;;;;3.57;2.90;;;21.10;99.90;;;;;;5091466;28;20443;-77
2021/08/24 12:15:27;;;;;;;4.47;2.90;;;21.00;99.90;;;;;;5107485;28;20439;-82
2021/08/24 12:18:02;;;;;;;5.80;2.90;;;21.00;99.90;;;;;;5100950;28;20458;-79
2021/08/24 12:20:34;;;;;;;4.50;3.23;;;21.00;99.90;;;;;;5114173;28;20454;-82
2021/08/24 12:23:05;;;;;;;5.17;3.10;;;20.90;99.90;;;;;;5096223;28;20442;-81
2021/08/24 12:25:35;;;;;;;3.77;2.77;;;21.00;99.90;;;;;;5113187;28;20533;-76
2021/08/24 12:28:06;;;;;;;4.93;3.87;;;21.00;99.90;;;;;;5108668;28;20474;-77
2021/08/24 12:31:04;;;;;;;3.80;3.23;;;20.90;99.90;;;;;;5090702;28;20454;-77
2021/08/24 12:33:35;;;;;;;4.03;2.73;;;20.90;99.90;;;;;;5099056;28;20435;-77
2021/08/24 12:36:36;;;;;;;5.13;3.10;;;20.90;99.90;;;;;;5112144;28;20438;-78
2021/08/24 12:39:35;;;;;;;4.40;3.20;;;20.90;99.90;;;;;;5117053;27;20433;-77
2021/08/24 12:42:27;;;;;;;3.73;2.97;;;21.00;99.90;;;;;;5084268;28;20466;-82
2021/08/24 12:45:14;;;;;;;5.07;2.90;;;21.00;99.90;;;;;;5089286;28;20438;-80
2021/08/24 12:47:44;;;;;;;2.63;2.30;;;21.00;99.90;;;;;;5119912;27;20482;-78
2021/08/24 12:50:40;;;;;;;4.10;2.93;;;21.10;99.90;;;;;;5095373;28;20817;-79
2021/08/24 12:53:26;;;;;;;3.77;2.87;;;21.00;99.90;;;;;;5112629;27;20431;-77
2021/08/24 12:55:54;;;;;;;3.53;2.70;;;21.00;99.90;;;;;;5100401;28;20445;-79
2021/08/24 12:58:27;;;;;;;3.43;2.67;;;21.00;99.90;;;;;;5115623;28;20545;-76
2021/08/24 13:01:12;;;;;;;4.67;3.00;;;21.10;99.90;;;;;;5097908;28;20986;-78
2021/08/24 13:03:41;;;;;;;2.93;2.43;;;21.00;99.90;;;;;;5116806;28;20469;-79
2021/08/24 13:06:24;;;;;;;3.27;2.70;;;21.00;99.90;;;;;;5117750;28;20431;-77
2021/08/24 13:08:54;;;;;;;3.27;2.87;;;21.00;99.90;;;;;;5118457;27;20477;-80
2021/08/24 13:11:35;;;;;;;3.13;2.60;;;21.00;99.90;;;;;;5116459;28;20466;-78
2021/08/24 13:14:04;;;;;;;4.90;3.90;;;21.00;99.90;;;;;;5092764;28;20445;-80
2021/08/24 13:16:37;;;;;;;3.47;2.90;;;21.00;99.90;;;;;;5095854;28;20438;-80
2021/08/24 13:19:14;;;;;;;3.67;2.87;;;21.00;99.90;;;;;;5097636;28;20919;-79
2021/08/24 13:21:54;;;;;;;4.13;3.43;;;21.00;99.90;;;;;;5098555;28;20462;-84
2021/08/24 13:24:28;;;;;;;4.20;3.00;;;21.00;99.90;;;;;;5096210;28;20957;-80
2021/08/24 13:26:59;;;;;;;5.40;3.23;;;21.00;99.90;;;;;;5098905;28;20446;-77
2021/08/24 13:29:28;;;;;;;5.27;3.67;;;21.00;99.90;;;;;;5117025;28;20477;-78
2021/08/24 13:31:59;;;;;;;3.67;3.10;;;21.00;99.90;;;;;;5117203;28;20458;-77
2021/08/24 13:34:36;;;;;;;3.00;2.50;;;21.00;99.90;;;;;;5079924;28;20427;-78
2021/08/24 13:37:04;;;;;;;6.47;3.20;;;21.00;99.90;;;;;;5092813;28;20799;-79
2021/08/24 13:39:31;;;;;;;5.10;3.23;;;21.20;99.90;;;;;;5096523;28;20435;-76